Time;durP1;ratioP1;P1;durP2;ratioP2;P2;SDS_P1;SDS_P2;PMS_P1;PMS_P2;Temp;Humidity;BMP_temperature;BMP_pressure;BME280_temperature;BME280_humidity;BME280_pressure;Samples;Min_cycle;Max_cycle;Signal;HPM_P1;HPM_P2
2020/12/12 00:04:06;;;;;;;1999.90;999.90;;;;;;;2.26;78.66;99547.00;15859129;28;20044;-62
2020/12/12 00:11:40;;;;;;;1999.90;999.90;;;;;;;2.50;77.71;99544.00;15864825;28;20443;-61
2020/12/12 00:19:12;;;;;;;;;;;;;;;2.34;78.42;99528.94;15815980;28;20407;-60
2020/12/12 00:26:46;;;;;;;1999.90;999.90;;;;;;;2.11;78.88;99534.38;15867026;28;19920;-60
2020/12/12 00:34:18;;;;;;;1999.90;999.90;;;;;;;2.17;79.18;99524.88;15832052;28;20081;-61
2020/12/12 00:41:52;;;;;;;1999.90;999.90;;;;;;;1.96;79.92;99527.22;15848913;28;20513;-59
2020/12/12 00:49:26;;;;;;;1999.90;999.90;;;;;;;2.01;78.96;99515.31;15832592;28;20052;-59
2020/12/12 00:57:00;;;;;;;1999.90;999.90;;;;;;;1.94;79.55;99531.38;15848564;28;20393;-61
2020/12/12 01:04:32;;;;;;;1999.90;999.90;;;;;;;1.90;79.68;99533.94;15866979;28;20093;-60
2020/12/12 01:12:07;;;;;;;1999.90;999.90;;;;;;;1.91;79.92;99535.56;15866458;28;20040;-61
2020/12/12 01:19:40;;;;;;;1999.90;999.90;;;;;;;1.78;79.98;99530.06;15831438;28;20096;-61
2020/12/12 01:27:13;;;;;;;1999.90;999.90;;;;;;;1.56;81.38;99528.78;15865998;28;20039;-61
2020/12/12 01:34:45;;;;;;;1999.90;999.90;;;;;;;1.67;80.80;99534.94;15865833;28;20036;-60
2020/12/12 01:42:19;;;;;;;1999.90;999.90;;;;;;;1.73;80.99;99539.22;15877005;28;20390;-61
2020/12/12 01:49:52;;;;;;;1999.90;999.90;;;;;;;1.74;80.46;99530.66;15835588;28;20098;-59
2020/12/12 01:57:26;;;;;;;1999.90;999.90;;;;;;;1.77;79.98;99528.41;15864301;28;20497;-61
2020/12/12 02:04:59;;;;;;;1999.90;999.90;;;;;;;1.56;81.17;99531.53;15857991;28;20043;-60
2020/12/12 02:12:32;;;;;;;1999.90;999.90;;;;;;;1.60;80.73;99527.06;15857368;28;20053;-59
2020/12/12 02:20:05;;;;;;;1999.90;999.90;;;;;;;1.71;79.98;99514.75;15857076;28;20138;-61
2020/12/12 02:27:39;;;;;;;1999.90;999.90;;;;;;;1.56;81.12;99523.28;15874624;28;20405;-61
2020/12/12 02:35:13;;;;;;;1999.90;999.90;;;;;;;1.54;80.23;99516.47;15874488;28;20047;-59
2020/12/12 02:42:46;;;;;;;1999.90;999.90;;;;;;;1.66;80.73;99522.28;15874193;28;20523;-59
2020/12/12 02:50:25;;;;;;;1999.90;999.90;;;;;;;1.54;81.53;99519.22;15858840;28;20583;-60
2020/12/12 02:57:59;;;;;;;1999.90;999.90;;;;;;;1.52;81.61;99522.25;15871603;28;20074;-62
2020/12/12 03:05:31;;;;;;;1999.90;999.90;;;;;;;1.63;80.50;99522.91;15858363;28;20040;-57
2020/12/12 03:13:04;;;;;;;1999.90;999.90;;;;;;;1.70;81.07;99515.88;15854134;28;20031;-59
2020/12/12 03:20:37;;;;;;;1999.90;999.90;;;;;;;1.66;80.74;99522.28;15871740;28;20135;-56
2020/12/12 03:28:11;;;;;;;1999.90;999.90;;;;;;;1.71;80.62;99516.69;15870581;28;20044;-57
2020/12/12 03:35:43;;;;;;;;;;;;;;;1.73;80.67;99519.97;15836353;28;20047;-58
2020/12/12 03:43:17;;;;;;;1999.90;999.90;;;;;;;1.68;80.97;99518.13;15851792;28;20048;-59
2020/12/12 03:50:49;;;;;;;1999.90;999.90;;;;;;;1.70;80.74;99523.31;15851419;28;20036;-59
2020/12/12 03:58:23;;;;;;;1999.90;999.90;;;;;;;1.81;80.43;99532.19;15868573;28;20056;-59
2020/12/12 04:05:56;;;;;;;1999.90;999.90;;;;;;;1.73;80.79;99523.53;15868839;28;20497;-61
2020/12/12 04:13:30;;;;;;;1999.90;999.90;;;;;;;1.76;80.46;99516.59;15868428;28;20042;-61
2020/12/12 04:21:03;;;;;;;1999.90;999.90;;;;;;;1.81;80.56;99530.25;15868293;28;20047;-60
2020/12/12 04:28:36;;;;;;;1999.90;999.90;;;;;;;1.69;81.15;99519.75;15854728;28;20047;-61
2020/12/12 04:36:08;;;;;;;1999.90;999.90;;;;;;;1.74;80.71;99514.16;15868332;28;20084;-62
2020/12/12 04:43:43;;;;;;;1999.90;999.90;;;;;;;1.73;80.27;99507.03;15849628;28;20048;-59
2020/12/12 04:51:16;;;;;;;1999.90;999.90;;;;;;;1.76;80.69;99513.03;15850724;28;20043;-60
2020/12/12 04:58:51;;;;;;;1999.90;999.90;;;;;;;1.70;80.73;99529.63;15867255;28;20043;-61
2020/12/12 05:06:28;;;;;;;1999.90;999.90;;;;;;;1.62;81.13;99533.06;15831627;28;20044;-61
2020/12/12 05:14:08;;;;;;;1999.90;999.90;;;;;;;1.74;80.39;99525.16;15851354;28;20058;-58
2020/12/12 05:21:47;;;;;;;1999.90;999.90;;;;;;;1.67;80.94;99529.44;15878568;28;20047;-58
2020/12/12 05:29:20;;;;;;;1999.90;999.90;;;;;;;1.67;80.87;99530.25;15859662;28;20439;-60
2020/12/12 05:36:54;;;;;;;1999.90;999.90;;;;;;;1.63;81.03;99526.47;15877281;28;20043;-59
2020/12/12 05:44:30;;;;;;;1999.90;999.90;;;;;;;1.68;80.87;99531.88;15876932;28;20501;-60
2020/12/12 05:52:03;;;;;;;1999.90;999.90;;;;;;;1.77;80.26;99540.22;15816338;28;20394;-59
2020/12/12 05:59:46;;;;;;;1999.90;999.90;;;;;;;1.53;81.69;99525.81;15875964;28;20039;-62
2020/12/12 06:07:27;;;;;;;1999.90;999.90;;;;;;;1.64;81.15;99538.28;15833156;28;20047;-61
2020/12/12 06:15:01;;;;;;;1999.90;999.90;;;;;;;1.50;81.20;99540.19;15856825;28;20134;-62
2020/12/12 06:22:35;;;;;;;1999.90;999.90;;;;;;;1.49;81.39;99552.31;15832390;28;20043;-63
2020/12/12 06:30:12;;;;;;;1999.90;999.90;;;;;;;1.51;81.85;99542.63;15856206;28;20046;-63
2020/12/12 06:37:44;;;;;;;1999.90;999.90;;;;;;;1.56;81.00;99549.97;15855393;28;20043;-62
2020/12/12 06:45:31;;;;;;;1999.90;999.90;;;;;;;1.76;80.21;99548.78;15874282;28;20040;-58
2020/12/12 06:53:17;;;;;;;1999.90;999.90;;;;;;;1.67;80.60;99560.50;15873261;28;20305;-61
2020/12/12 07:00:50;;;;;;;1999.90;999.90;;;;;;;1.77;80.05;99561.41;15854941;28;20126;-61
2020/12/12 07:08:23;;;;;;;1999.90;999.90;;;;;;;1.81;80.58;99562.47;15872186;28;20061;-58
2020/12/12 07:15:57;;;;;;;1999.90;999.90;;;;;;;1.68;80.17;99575.88;15853434;28;20036;-60
2020/12/12 07:23:30;;;;;;;1999.90;999.90;;;;;;;1.69;80.62;99585.75;15853893;28;20048;-61
2020/12/12 07:31:04;;;;;;;1999.90;999.90;;;;;;;1.96;80.24;99584.97;15852035;28;20036;-60
2020/12/12 07:38:39;;;;;;;1999.90;999.90;;;;;;;2.19;79.44;99588.69;15868923;28;20057;-59
2020/12/12 07:46:13;;;;;;;1999.90;999.90;;;;;;;2.27;78.91;99606.41;15851977;28;20293;-60
2020/12/12 07:53:46;;;;;;;1999.90;999.90;;;;;;;2.31;78.73;99612.97;15869207;28;20050;-59
2020/12/12 08:01:23;;;;;;;1999.90;999.90;;;;;;;2.45;78.31;99623.97;15868864;28;20039;-64
2020/12/12 08:08:58;;;;;;;1999.90;999.90;;;;;;;2.40;78.29;99629.56;15869003;28;20040;-59
2020/12/12 08:16:40;;;;;;;1999.90;999.90;;;;;;;2.69;77.94;99637.53;15867560;28;20378;-60
2020/12/12 08:24:13;;;;;;;1999.90;999.90;;;;;;;2.64;78.11;99649.47;15867361;28;20131;-61
2020/12/12 08:31:47;;;;;;;1999.90;999.90;;;;;;;2.44;79.04;99652.63;15867957;28;20118;-59
2020/12/12 08:39:25;;;;;;;1999.90;999.90;;;;;;;2.64;77.92;99655.00;15858245;28;20071;-58
2020/12/12 08:47:01;;;;;;;1999.90;999.90;;;;;;;2.92;77.50;99666.81;15878918;28;20039;-61
2020/12/12 08:54:33;;;;;;;1999.90;999.90;;;;;;;2.98;76.83;99668.31;15863460;28;20052;-59
2020/12/12 09:02:17;;;;;;;1999.90;999.90;;;;;;;2.94;77.25;99670.09;15879325;28;20031;-61
2020/12/12 09:10:07;;;;;;;1999.90;999.90;;;;;;;2.98;77.46;99686.81;15881039;28;20053;-61
2020/12/12 09:17:41;;;;;;;1999.90;999.90;;;;;;;3.11;76.83;99684.03;15882808;28;20118;-59
2020/12/12 09:25:13;;;;;;;1999.90;999.90;;;;;;;3.16;76.62;99685.88;15878692;28;20114;-57
2020/12/12 09:32:47;;;;;;;1999.90;999.90;;;;;;;3.26;76.77;99696.69;15878945;28;20122;-61
2020/12/12 09:40:20;;;;;;;1999.90;999.90;;;;;;;3.16;76.63;99705.97;15879202;28;20043;-58
2020/12/12 09:47:54;;;;;;;1999.90;999.90;;;;;;;3.44;76.27;99715.03;15858720;27;20172;-58
2020/12/12 09:55:27;;;;;;;1999.90;999.90;;;;;;;3.16;78.00;99714.25;15863656;27;20040;-56
2020/12/12 10:03:01;;;;;;;1999.90;999.90;;;;;;;2.97;78.04;99712.72;15867093;27;20071;-60
2020/12/12 10:10:35;;;;;;;1999.90;999.90;;;;;;;3.24;77.21;99720.19;15874683;28;20043;-60
2020/12/12 10:18:08;;;;;;;1999.90;999.90;;;;;;;3.28;77.68;99727.50;15873571;28;20052;-59
2020/12/12 10:25:41;;;;;;;1999.90;999.90;;;;;;;3.23;77.50;99733.16;15875018;28;20058;-60
2020/12/12 10:33:18;;;;;;;1999.90;999.90;;;;;;;3.33;77.22;99721.88;15875212;28;20035;-59
2020/12/12 10:41:00;;;;;;;1999.90;999.90;;;;;;;3.55;76.54;99726.66;15855964;28;20101;-59
2020/12/12 10:48:33;;;;;;;1999.90;999.90;;;;;;;3.51;76.61;99727.56;15856552;28;20108;-58
2020/12/12 10:56:06;;;;;;;1999.90;999.90;;;;;;;3.67;75.93;99720.59;15855515;28;20048;-62
2020/12/12 11:03:42;;;;;;;1999.90;999.90;;;;;;;3.91;74.53;99717.53;15873464;28;20117;-59
2020/12/12 11:11:15;;;;;;;1999.90;999.90;;;;;;;3.79;75.11;99717.28;15872914;28;20500;-62
2020/12/12 11:18:51;;;;;;;1999.90;999.90;;;;;;;3.60;75.42;99717.44;15874181;28;20084;-61
2020/12/12 11:26:24;;;;;;;1999.90;999.90;;;;;;;3.84;74.63;99729.00;15872534;28;20142;-59
2020/12/12 11:34:01;;;;;;;1999.90;999.90;;;;;;;3.51;75.56;99733.09;15871245;28;20122;-59
2020/12/12 11:41:47;;;;;;;1999.90;999.90;;;;;;;3.26;76.35;99731.72;15871626;28;20046;-58
2020/12/12 11:49:22;;;;;;;1999.90;999.90;;;;;;;3.19;77.02;99730.16;15851629;28;20049;-58
2020/12/12 11:56:55;;;;;;;1999.90;999.90;;;;;;;3.28;76.60;99740.47;15851199;28;20036;-57
2020/12/12 12:04:28;;;;;;;1999.90;999.90;;;;;;;3.35;76.15;99735.38;15868811;28;20047;-59
2020/12/12 12:12:01;;;;;;;1999.90;999.90;;;;;;;3.26;77.04;99742.72;15851209;28;20506;-60
2020/12/12 12:19:34;;;;;;;1999.90;999.90;;;;;;;3.39;76.54;99745.47;15868644;28;20047;-62
2020/12/12 12:27:07;;;;;;;1999.90;999.90;;;;;;;3.41;76.80;99742.41;15868000;28;20074;-61
2020/12/12 12:34:43;;;;;;;1999.90;999.90;;;;;;;3.79;75.09;99753.16;15868175;28;20071;-57
2020/12/12 12:42:16;;;;;;;;;;;;;;;4.00;74.96;99749.59;15868260;28;20048;-57
2020/12/12 12:49:49;;;;;;;1999.90;999.90;;;;;;;4.05;74.34;99757.75;15849286;28;19924;-57
2020/12/12 12:57:22;;;;;;;1999.90;999.90;;;;;;;3.88;75.17;99756.81;15867198;28;20040;-59
2020/12/12 13:04:55;;;;;;;1999.90;999.90;;;;;;;3.84;75.83;99758.53;15867233;28;20048;-60
2020/12/12 13:12:28;;;;;;;1999.90;999.90;;;;;;;3.97;75.96;99774.25;15852193;28;20126;-60
2020/12/12 13:20:11;;;;;;;1999.90;999.90;;;;;;;3.84;76.63;99784.19;15867169;28;20051;-59
2020/12/12 13:27:43;;;;;;;1999.90;999.90;;;;;;;3.43;78.15;99789.78;15848981;28;20552;-58
2020/12/12 13:35:17;;;;;;;1999.90;999.90;;;;;;;3.44;77.82;99792.25;15855506;28;20040;-60
2020/12/12 13:42:49;;;;;;;1999.90;999.90;;;;;;;3.68;77.32;99793.94;15878498;28;20093;-55
2020/12/12 13:50:23;;;;;;;1999.90;999.90;;;;;;;3.82;76.76;99797.47;15878268;28;20282;-58
2020/12/12 13:57:55;;;;;;;1999.90;999.90;;;;;;;3.82;76.65;99804.94;15878429;28;20088;-60
2020/12/12 14:05:30;;;;;;;1999.90;999.90;;;;;;;3.84;76.70;99806.25;15860194;28;20044;-56
2020/12/12 14:28:43;;;;;;;1999.90;999.90;;;;;;;3.62;77.38;99825.53;15825395;28;20040;-61
2020/12/12 14:36:17;;;;;;;1999.90;999.90;;;;;;;3.85;76.47;99831.91;15838662;28;20039;-60
2020/12/12 14:43:49;;;;;;;1999.90;999.90;;;;;;;3.75;76.72;99835.72;15873201;28;20035;-57
2020/12/12 14:51:23;;;;;;;1999.90;999.90;;;;;;;3.71;77.48;99845.75;15850157;27;20390;-60
2020/12/12 14:58:58;;;;;;;1999.90;999.90;;;;;;;3.71;76.85;99848.50;15871092;28;20047;-61
2020/12/12 15:06:32;;;;;;;1999.90;999.90;;;;;;;4.11;76.42;99857.84;15828237;28;20046;-58
2020/12/12 15:14:08;;;;;;;1999.90;999.90;;;;;;;3.69;77.51;99870.06;15852706;28;20039;-61
2020/12/12 15:21:42;;;;;;;1999.90;999.90;;;;;;;4.02;76.42;99885.34;15869034;28;20048;-60
2020/12/12 15:29:15;;;;;;;1999.90;999.90;;;;;;;3.77;76.69;99902.47;15866657;27;20055;-58
2020/12/12 15:36:49;;;;;;;1999.90;999.90;;;;;;;3.82;76.67;99896.00;15869047;28;20048;-58
2020/12/12 15:44:22;;;;;;;1999.90;999.90;;;;;;;3.89;75.96;99901.94;15867371;28;20113;-59
2020/12/12 15:51:56;;;;;;;1999.90;999.90;;;;;;;3.73;76.32;99920.75;15852226;27;20036;-59
2020/12/12 15:59:29;;;;;;;1999.90;999.90;;;;;;;3.67;76.98;99922.00;15868087;28;20035;-59
2020/12/12 16:07:03;;;;;;;1999.90;999.90;;;;;;;3.73;76.32;99920.75;15868980;28;20035;-59
2020/12/12 16:14:36;;;;;;;1999.90;999.90;;;;;;;3.74;76.02;99931.47;15868621;28;20093;-62
2020/12/12 16:22:09;;;;;;;1999.90;999.90;;;;;;;3.79;76.48;99933.31;15849624;28;20496;-62
2020/12/12 16:29:41;;;;;;;1999.90;999.90;;;;;;;3.56;76.68;99953.66;15849654;28;20043;-59
2020/12/12 16:37:15;;;;;;;1999.90;999.90;;;;;;;3.88;75.88;99956.34;15867320;28;20039;-61
2020/12/12 16:44:49;;;;;;;1999.90;999.90;;;;;;;3.80;75.53;99959.81;15868286;28;20065;-57
2020/12/12 16:52:23;;;;;;;1999.90;999.90;;;;;;;3.78;75.68;99951.00;15849045;28;20114;-61
2020/12/12 16:59:56;;;;;;;1999.90;999.90;;;;;;;3.82;75.84;99976.03;15848217;28;20071;-61
2020/12/12 17:07:29;;;;;;;1999.90;999.90;;;;;;;3.61;76.53;99964.59;15870438;28;20039;-59
2020/12/12 17:15:05;;;;;;;1999.90;999.90;;;;;;;3.78;76.33;99972.28;15877905;28;20288;-62
2020/12/12 17:22:42;;;;;;;1999.90;999.90;;;;;;;3.92;75.58;99981.38;15878182;28;20043;-61
2020/12/12 17:30:15;;;;;;;1999.90;999.90;;;;;;;3.91;75.15;99990.78;15877810;28;20097;-60
2020/12/12 17:37:50;;;;;;;1999.90;999.90;;;;;;;4.25;75.07;99995.88;15859219;28;20031;-62
2020/12/12 17:45:22;;;;;;;1999.90;999.90;;;;;;;3.99;75.86;99999.16;15858442;28;20050;-61
2020/12/12 17:52:56;;;;;;;1999.90;999.90;;;;;;;3.90;75.72;100014.81;15857405;28;20047;-59
2020/12/12 18:00:28;;;;;;;1999.90;999.90;;;;;;;3.97;75.47;100012.47;15875014;28;20077;-60
2020/12/12 18:08:03;;;;;;;1999.90;999.90;;;;;;;3.73;76.14;100025.59;15839361;28;20475;-60
2020/12/12 18:15:35;;;;;;;1999.90;999.90;;;;;;;3.69;76.06;100017.13;15856570;28;20043;-60
2020/12/12 18:23:09;;;;;;;1999.90;999.90;;;;;;;3.69;75.78;100021.81;15855374;28;20051;-59
2020/12/12 18:30:42;;;;;;;1999.90;999.90;;;;;;;3.59;77.04;100038.56;15855047;28;20134;-61
2020/12/12 18:38:16;;;;;;;1999.90;999.90;;;;;;;3.84;75.50;100037.28;15855204;28;20043;-60
2020/12/12 18:45:48;;;;;;;1999.90;999.90;;;;;;;3.53;76.83;100040.56;15855309;28;20035;-60
2020/12/12 18:53:21;;;;;;;1999.90;999.90;;;;;;;3.61;76.74;100039.88;15873091;28;20058;-58
2020/12/12 19:00:54;;;;;;;1999.90;999.90;;;;;;;3.68;76.57;100047.78;15837999;28;20048;-58
2020/12/12 19:08:28;;;;;;;1999.90;999.90;;;;;;;3.73;76.25;100061.47;15853765;28;20062;-59
2020/12/12 19:16:07;;;;;;;1999.90;999.90;;;;;;;3.86;76.01;100068.97;15872334;28;20047;-60
2020/12/12 19:23:41;;;;;;;1999.90;999.90;;;;;;;3.96;75.86;100065.19;15853466;28;20051;-63
2020/12/12 19:31:13;;;;;;;1999.90;999.90;;;;;;;3.88;75.97;100074.19;15835419;28;20043;-59
2020/12/12 19:38:47;;;;;;;1999.90;999.90;;;;;;;4.09;75.55;100071.88;15851884;28;20036;-62
2020/12/12 19:46:22;;;;;;;1999.90;999.90;;;;;;;4.10;75.92;100087.31;15869273;28;20438;-60
2020/12/12 19:53:56;;;;;;;1999.90;999.90;;;;;;;3.89;76.88;100084.94;15869582;28;20122;-62
2020/12/12 20:01:31;;;;;;;1999.90;999.90;;;;;;;3.74;77.74;100102.56;15851881;28;20063;-58
2020/12/12 20:09:04;;;;;;;1999.90;999.90;;;;;;;3.98;76.64;100104.38;15868250;28;20489;-59
2020/12/12 20:16:39;;;;;;;1999.90;999.90;;;;;;;3.91;77.23;100107.53;15868515;28;20093;-59
2020/12/12 20:24:15;;;;;;;1999.90;999.90;;;;;;;3.94;77.29;100111.59;15850774;28;20031;-58
2020/12/12 20:31:47;;;;;;;1999.90;999.90;;;;;;;4.21;76.08;100110.84;15866693;28;20071;-60
2020/12/12 20:39:21;;;;;;;1999.90;999.90;;;;;;;4.27;75.98;100106.84;15868678;28;20040;-58
2020/12/12 20:46:54;;;;;;;1999.90;999.90;;;;;;;4.12;77.34;100107.16;15871708;28;20032;-61
2020/12/12 20:54:27;;;;;;;1999.90;999.90;;;;;;;4.28;76.22;100111.28;15894910;28;20085;-60
2020/12/12 21:02:02;;;;;;;1999.90;999.90;;;;;;;4.24;76.80;100122.09;15906545;28;20090;-62
2020/12/12 21:09:35;;;;;;;1999.90;999.90;;;;;;;4.34;76.88;100121.06;15912379;28;20140;-61
2020/12/12 21:17:09;;;;;;;1999.90;999.90;;;;;;;4.48;76.87;100118.31;15911377;27;20043;-61
2020/12/12 21:24:46;;;;;;;1999.90;999.90;;;;;;;4.35;76.74;100129.06;15891260;27;20051;-61
2020/12/12 21:32:19;;;;;;;1999.90;999.90;;;;;;;4.22;77.26;100131.81;15852234;28;20043;-62
2020/12/12 21:39:53;;;;;;;1999.90;999.90;;;;;;;4.77;75.12;100140.09;15861940;28;20093;-60
2020/12/12 21:47:25;;;;;;;1999.90;999.90;;;;;;;4.71;74.66;100138.59;15851631;28;20374;-60
2020/12/12 21:54:59;;;;;;;1999.90;999.90;;;;;;;4.73;75.14;100155.69;15862166;28;20036;-63
2020/12/12 22:02:35;;;;;;;1999.90;999.90;;;;;;;4.57;75.90;100161.50;15876258;28;20054;-60
2020/12/12 22:10:08;;;;;;;1999.90;999.90;;;;;;;4.42;76.49;100170.09;15872560;28;20590;-64
2020/12/12 22:17:41;;;;;;;1999.90;999.90;;;;;;;4.31;77.14;100180.53;15875951;28;20040;-59
2020/12/12 22:25:14;;;;;;;1999.90;999.90;;;;;;;4.33;76.98;100169.97;15875075;28;20048;-61
2020/12/12 22:32:47;;;;;;;;;;;;;;;4.20;77.40;100181.81;15816374;28;20043;-62
2020/12/12 22:40:21;;;;;;;1999.90;999.90;;;;;;;4.34;76.89;100185.44;15855875;28;19920;-59
2020/12/12 22:47:56;;;;;;;1999.90;999.90;;;;;;;4.31;77.30;100182.47;15872914;28;20043;-62
2020/12/12 22:55:29;;;;;;;1999.90;999.90;;;;;;;4.31;77.63;100191.56;15873348;28;20042;-61
2020/12/12 23:03:03;;;;;;;1999.90;999.90;;;;;;;4.05;78.10;100198.66;15830704;28;20044;-63
2020/12/12 23:10:38;;;;;;;1999.90;999.90;;;;;;;4.15;78.03;100197.66;15874154;28;20051;-59
2020/12/12 23:18:11;;;;;;;1999.90;999.90;;;;;;;4.26;78.17;100199.94;15872881;28;20416;-60
2020/12/12 23:25:45;;;;;;;1999.90;999.90;;;;;;;4.38;77.28;100210.50;15871700;28;20050;-60
2020/12/12 23:33:20;;;;;;;1999.90;999.90;;;;;;;4.31;78.21;100205.38;15870849;28;20048;-58
2020/12/12 23:40:53;;;;;;;1999.90;999.90;;;;;;;4.27;78.49;100203.50;15853009;28;20134;-60
2020/12/12 23:48:26;;;;;;;1999.90;999.90;;;;;;;4.11;79.26;100204.91;15851670;28;20442;-62
2020/12/12 23:55:59;;;;;;;1999.90;999.90;;;;;;;4.10;80.02;100211.56;15851851;28;20040;-60
